createdAt,value
2023-01-30T00:01:53.846Z,21.93
2023-01-30T00:04:20.617Z,21.95
2023-01-30T00:06:47.613Z,21.95
2023-01-30T00:09:15.771Z,21.94
2023-01-30T00:11:42.760Z,21.95
2023-01-30T00:14:09.545Z,21.97
2023-01-30T00:16:36.359Z,21.98
2023-01-30T00:19:03.293Z,21.97
2023-01-30T00:21:30.136Z,21.97
2023-01-30T00:23:56.927Z,21.96
2023-01-30T00:26:23.651Z,21.98
2023-01-30T00:28:50.434Z,21.98
2023-01-30T00:31:17.581Z,21.97
2023-01-30T00:33:44.359Z,21.94
2023-01-30T00:36:11.474Z,21.96
2023-01-30T00:38:38.240Z,21.95
2023-01-30T00:41:05.358Z,21.92
2023-01-30T00:43:41.466Z,21.89
2023-01-30T00:46:25.218Z,21.89
2023-01-30T00:48:51.890Z,21.87
2023-01-30T00:51:18.594Z,21.87
2023-01-30T00:53:45.508Z,21.84
2023-01-30T00:56:12.218Z,21.80
2023-01-30T00:58:38.958Z,21.82
2023-01-30T01:01:05.673Z,21.78
2023-01-30T01:03:32.351Z,21.76
2023-01-30T01:05:59.002Z,21.73
2023-01-30T01:08:25.964Z,21.70
2023-01-30T01:10:52.677Z,21.67
2023-01-30T01:13:19.327Z,21.67
2023-01-30T01:15:46.051Z,21.62
2023-01-30T01:18:12.924Z,21.59
2023-01-30T01:20:39.577Z,21.59
2023-01-30T01:23:06.423Z,21.56
2023-01-30T01:25:33.123Z,21.55
2023-01-30T01:28:00.021Z,21.52
2023-01-30T01:30:26.804Z,21.51
2023-01-30T01:32:53.449Z,21.46
2023-01-30T01:35:20.372Z,21.46
2023-01-30T01:37:47.305Z,21.42
2023-01-30T01:40:27.586Z,21.41
2023-01-30T01:42:54.250Z,21.39
2023-01-30T01:45:22.683Z,21.37
2023-01-30T01:47:57.874Z,21.34
2023-01-30T01:50:27.327Z,21.33
2023-01-30T01:52:56.968Z,21.28
2023-01-30T01:55:25.015Z,21.26
2023-01-30T01:57:55.094Z,21.24
2023-01-30T02:00:22.282Z,21.21
2023-01-30T02:02:59.714Z,21.18
2023-01-30T02:05:30.981Z,21.17
2023-01-30T02:08:03.298Z,21.13
2023-01-30T02:10:37.207Z,21.11
2023-01-30T02:13:03.896Z,21.10
2023-01-30T02:15:30.979Z,21.09
2023-01-30T02:17:57.644Z,21.06
2023-01-30T02:20:34.178Z,21.03
2023-01-30T02:23:02.339Z,21.00
2023-01-30T02:25:38.634Z,20.96
2023-01-30T02:28:14.763Z,20.94
2023-01-30T02:31:01.379Z,20.89
2023-01-30T02:33:40.127Z,20.88
2023-01-30T02:36:17.372Z,20.86
2023-01-30T02:38:53.758Z,20.84
2023-01-30T02:41:30.616Z,20.83
2023-01-30T02:43:57.710Z,20.79
2023-01-30T02:46:30.603Z,20.78
2023-01-30T02:49:00.305Z,20.75
2023-01-30T02:51:30.169Z,20.73
2023-01-30T02:53:56.870Z,20.72
2023-01-30T02:56:23.593Z,20.72
2023-01-30T02:58:52.804Z,20.70
2023-01-30T03:01:33.286Z,20.68
2023-01-30T03:04:27.908Z,20.64
2023-01-30T03:06:54.800Z,20.64
2023-01-30T03:09:37.178Z,20.60
2023-01-30T03:12:13.727Z,20.58
2023-01-30T03:14:46.353Z,20.57
2023-01-30T03:17:14.513Z,20.52
2023-01-30T03:19:41.943Z,20.52
2023-01-30T03:22:09.073Z,20.54
2023-01-30T03:24:36.337Z,20.51
2023-01-30T03:27:05.961Z,20.47
2023-01-30T03:29:33.008Z,20.45
2023-01-30T03:31:59.743Z,20.45
2023-01-30T03:34:26.511Z,20.45
2023-01-30T03:36:53.278Z,20.42
2023-01-30T03:39:19.948Z,20.42
2023-01-30T03:41:47.374Z,20.41
2023-01-30T03:44:14.492Z,20.38
2023-01-30T03:46:41.208Z,20.37
2023-01-30T03:49:08.072Z,20.34
2023-01-30T03:51:34.754Z,20.35
2023-01-30T03:54:01.560Z,20.33
2023-01-30T03:56:28.228Z,20.32
2023-01-30T03:58:54.908Z,20.30
2023-01-30T04:01:22.088Z,20.29
2023-01-30T04:03:49.042Z,20.28
2023-01-30T04:06:16.080Z,20.26
2023-01-30T04:08:42.758Z,20.24
2023-01-30T04:11:09.439Z,20.25
2023-01-30T04:13:36.134Z,20.21
2023-01-30T04:16:19.664Z,20.21
2023-01-30T04:18:46.675Z,20.20
2023-01-30T04:21:13.724Z,20.16
2023-01-30T04:23:40.575Z,20.17
2023-01-30T04:26:08.072Z,20.15
2023-01-30T04:28:34.975Z,20.13
2023-01-30T04:31:01.647Z,20.13
2023-01-30T04:33:28.362Z,20.13
2023-01-30T04:35:56.013Z,20.06
2023-01-30T04:38:23.696Z,20.09
2023-01-30T04:40:52.465Z,20.06
2023-01-30T04:43:19.693Z,20.06
2023-01-30T04:45:46.915Z,20.04
2023-01-30T04:48:13.707Z,20.04
2023-01-30T04:50:41.318Z,20.02
2023-01-30T04:53:08.294Z,20.02
2023-01-30T04:55:35.058Z,19.98
2023-01-30T04:58:01.866Z,20.00
2023-01-30T05:00:28.982Z,19.97
2023-01-30T05:02:56.629Z,19.97
2023-01-30T05:05:23.994Z,19.95
2023-01-30T05:07:51.287Z,19.94
2023-01-30T05:10:18.117Z,19.95
2023-01-30T05:12:44.943Z,19.92
2023-01-30T05:15:12.372Z,19.91
2023-01-30T05:17:40.007Z,19.90
2023-01-30T05:20:08.215Z,19.90
2023-01-30T05:22:34.945Z,19.88
2023-01-30T05:25:01.747Z,19.90
2023-01-30T05:27:28.441Z,19.90
2023-01-30T05:29:55.094Z,19.84
2023-01-30T05:32:21.993Z,19.88
2023-01-30T05:34:49.758Z,19.84
2023-01-30T05:37:16.478Z,19.83
2023-01-30T05:39:43.283Z,19.82
2023-01-30T05:42:10.020Z,19.81
2023-01-30T05:44:36.997Z,19.80
2023-01-30T05:47:03.885Z,19.79
2023-01-30T05:49:30.623Z,19.81
2023-01-30T05:51:57.513Z,19.82
2023-01-30T05:54:24.225Z,19.81
2023-01-30T05:56:51.078Z,19.82
2023-01-30T05:59:18.908Z,19.85
2023-01-30T06:01:45.653Z,19.88
2023-01-30T06:04:12.468Z,19.91
2023-01-30T06:06:39.139Z,19.93
2023-01-30T06:09:05.809Z,19.97
2023-01-30T06:11:32.708Z,20.02
2023-01-30T06:13:59.662Z,20.09
2023-01-30T06:16:27.431Z,20.13
2023-01-30T06:18:54.261Z,20.21
2023-01-30T06:21:21.006Z,20.28
2023-01-30T06:23:48.083Z,20.34
2023-01-30T06:26:15.026Z,20.39
2023-01-30T06:28:42.478Z,20.46
2023-01-30T06:31:09.566Z,20.50
2023-01-30T06:33:36.569Z,20.55
2023-01-30T06:36:03.451Z,20.60
2023-01-30T06:38:30.399Z,20.67
2023-01-30T06:40:57.289Z,20.74
2023-01-30T06:43:24.428Z,20.78
2023-01-30T06:45:51.274Z,20.84
2023-01-30T06:48:17.997Z,20.89
2023-01-30T06:50:46.836Z,20.94
2023-01-30T06:53:13.613Z,21.00
2023-01-30T06:55:41.410Z,21.02
2023-01-30T06:58:09.598Z,21.08
2023-01-30T07:00:36.870Z,21.13
2023-01-30T07:03:03.593Z,21.17
2023-01-30T07:05:30.483Z,21.21
2023-01-30T07:07:57.285Z,21.24
2023-01-30T07:10:26.455Z,21.29
2023-01-30T07:12:53.884Z,21.32
2023-01-30T07:15:21.722Z,21.36
2023-01-30T07:17:48.999Z,21.39
2023-01-30T07:20:16.176Z,21.42
2023-01-30T07:22:43.715Z,21.43
2023-01-30T07:25:10.683Z,21.43
2023-01-30T07:27:38.307Z,21.43
2023-01-30T07:30:05.484Z,21.14
2023-01-30T07:32:32.199Z,21.21
2023-01-30T07:35:00.027Z,21.20
2023-01-30T07:37:26.867Z,21.23
2023-01-30T07:39:54.124Z,21.24
2023-01-30T07:42:21.125Z,21.22
2023-01-30T07:44:47.963Z,21.22
2023-01-30T07:47:16.379Z,21.21
2023-01-30T07:49:43.629Z,21.18
2023-01-30T07:52:11.189Z,21.15
2023-01-30T07:54:38.125Z,21.14
2023-01-30T07:57:05.021Z,21.14
2023-01-30T07:59:32.240Z,21.10
2023-01-30T08:01:59.230Z,21.08
2023-01-30T08:04:26.101Z,21.06
2023-01-30T08:06:53.344Z,21.06
2023-01-30T08:09:20.239Z,21.01
2023-01-30T08:11:47.142Z,20.97
2023-01-30T08:14:14.069Z,20.94
2023-01-30T08:16:41.925Z,20.94
2023-01-30T08:19:09.389Z,20.91
2023-01-30T08:21:37.050Z,20.87
2023-01-30T08:24:04.513Z,20.89
2023-01-30T08:26:32.429Z,20.91
2023-01-30T08:29:02.893Z,20.86
2023-01-30T08:31:29.819Z,20.88
2023-01-30T08:33:57.361Z,20.85
2023-01-30T08:36:24.421Z,20.86
2023-01-30T08:38:51.396Z,20.86
2023-01-30T08:41:18.305Z,20.85
2023-01-30T08:43:45.150Z,20.81
2023-01-30T08:46:11.980Z,20.79
2023-01-30T08:48:49.639Z,20.78
2023-01-30T08:51:17.420Z,20.77
2023-01-30T08:53:44.381Z,20.79
2023-01-30T08:56:11.462Z,20.78
2023-01-30T08:58:38.850Z,20.82
2023-01-30T09:01:07.431Z,20.83
2023-01-30T09:03:34.922Z,20.88
2023-01-30T09:06:01.820Z,20.89
2023-01-30T09:08:28.840Z,20.91
2023-01-30T09:10:59.714Z,20.94
2023-01-30T09:13:26.949Z,20.95
2023-01-30T09:15:54.055Z,20.95
2023-01-30T09:18:21.093Z,20.95
2023-01-30T09:20:52.736Z,20.97
2023-01-30T09:23:20.684Z,20.96
2023-01-30T09:25:47.610Z,20.97
2023-01-30T09:28:14.829Z,20.97
2023-01-30T09:30:47.183Z,20.94
2023-01-30T09:33:16.752Z,20.95
2023-01-30T09:35:43.635Z,20.98
2023-01-30T09:38:10.716Z,20.94
2023-01-30T09:40:44.246Z,20.93
2023-01-30T09:43:14.271Z,20.94
2023-01-30T09:45:44.961Z,20.93
2023-01-30T09:48:13.249Z,20.90
2023-01-30T09:50:48.018Z,20.92
2023-01-30T09:53:20.949Z,20.90
2023-01-30T09:55:48.529Z,20.89
2023-01-30T09:58:19.528Z,20.85
2023-01-30T10:00:48.472Z,20.84
2023-01-30T10:03:17.462Z,20.85
2023-01-30T10:05:47.534Z,20.83
2023-01-30T10:08:16.131Z,20.80
2023-01-30T10:10:46.054Z,20.80
2023-01-30T10:13:14.223Z,20.80
2023-01-30T10:15:47.679Z,20.79
2023-01-30T10:18:16.008Z,20.76
2023-01-30T10:20:50.381Z,20.74
2023-01-30T10:23:17.770Z,20.75
2023-01-30T10:25:47.012Z,20.74
2023-01-30T10:28:17.490Z,20.74
2023-01-30T10:30:46.770Z,20.71
2023-01-30T10:33:16.690Z,20.68
2023-01-30T10:35:46.042Z,20.67
2023-01-30T10:38:13.348Z,20.64
2023-01-30T10:40:42.663Z,20.60
2023-01-30T10:43:12.612Z,20.59
2023-01-30T10:45:45.769Z,20.57
2023-01-30T10:48:16.163Z,20.55
2023-01-30T10:50:47.083Z,20.53
2023-01-30T10:53:17.386Z,20.50
2023-01-30T10:55:47.927Z,20.48
2023-01-30T10:58:18.369Z,20.50
2023-01-30T11:00:47.248Z,20.52
2023-01-30T11:03:17.385Z,20.52
2023-01-30T11:05:47.324Z,20.49
2023-01-30T11:08:17.298Z,20.49
2023-01-30T11:10:44.204Z,20.46
2023-01-30T11:13:15.128Z,20.48
2023-01-30T11:15:42.658Z,20.44
2023-01-30T11:18:41.379Z,20.46
2023-01-30T11:21:01.892Z,20.44
2023-01-30T11:23:33.670Z,20.44
2023-01-30T11:26:11.030Z,20.42
2023-01-30T11:28:41.851Z,20.39
2023-01-30T11:31:13.310Z,20.37
2023-01-30T11:33:42.373Z,20.39
2023-01-30T11:36:24.727Z,20.37
2023-01-30T11:38:57.468Z,20.33
2023-01-30T11:41:24.961Z,20.32
2023-01-30T11:43:52.247Z,20.26
2023-01-30T11:46:20.772Z,20.29
2023-01-30T11:49:11.096Z,20.25
2023-01-30T11:51:38.768Z,20.22
2023-01-30T11:54:08.072Z,20.23
2023-01-30T11:56:39.581Z,20.21
2023-01-30T11:59:09.598Z,20.17
2023-01-30T12:01:37.615Z,20.19
2023-01-30T12:04:07.597Z,20.17
2023-01-30T12:06:36.540Z,20.18
2023-01-30T12:09:05.396Z,20.21
2023-01-30T12:11:35.345Z,20.19
2023-01-30T12:14:05.687Z,20.17
2023-01-30T12:16:36.553Z,20.15
2023-01-30T12:19:06.573Z,20.11
2023-01-30T12:21:35.032Z,20.11
2023-01-30T12:24:05.680Z,20.12
2023-01-30T12:26:36.579Z,20.10
2023-01-30T12:29:09.033Z,20.11
2023-01-30T12:31:39.697Z,20.11
2023-01-30T12:34:09.590Z,20.07
2023-01-30T12:36:40.480Z,20.05
2023-01-30T12:39:10.366Z,20.06
2023-01-30T12:41:40.951Z,20.03
2023-01-30T12:44:08.344Z,20.01
2023-01-30T12:46:44.512Z,19.99
2023-01-30T12:52:02.677Z,19.97
2023-01-30T12:54:38.951Z,20.01
2023-01-30T12:57:06.547Z,19.99
2023-01-30T12:59:36.591Z,20.00
2023-01-30T13:02:03.788Z,19.99
2023-01-30T13:04:46.903Z,19.97
2023-01-30T13:07:29.429Z,19.94
2023-01-30T13:10:00.459Z,19.93
2023-01-30T13:12:30.825Z,19.93
2023-01-30T13:15:00.989Z,19.94
2023-01-30T13:17:31.007Z,19.96
2023-01-30T13:20:00.931Z,19.94
2023-01-30T13:22:35.678Z,19.92
2023-01-30T13:25:07.119Z,19.93
2023-01-30T13:27:36.787Z,19.90
2023-01-30T13:30:06.618Z,19.90
2023-01-30T13:32:36.244Z,19.94
2023-01-30T13:35:07.609Z,19.93
2023-01-30T13:37:36.069Z,19.90
2023-01-30T13:40:05.427Z,19.88
2023-01-30T13:42:33.640Z,19.90
2023-01-30T13:45:01.514Z,19.87
2023-01-30T13:47:35.182Z,19.86
2023-01-30T13:50:10.566Z,19.86
2023-01-30T13:52:43.888Z,19.86
2023-01-30T13:55:21.720Z,19.86
2023-01-30T13:57:51.721Z,19.86
2023-01-30T14:00:22.167Z,19.87
2023-01-30T14:02:52.019Z,19.86
2023-01-30T14:05:47.390Z,19.92
2023-01-30T14:08:22.150Z,19.94
2023-01-30T14:10:50.135Z,19.97
2023-01-30T14:13:18.649Z,19.98
2023-01-30T14:15:49.649Z,19.98
2023-01-30T14:18:22.172Z,20.01
2023-01-30T14:20:50.962Z,20.06
2023-01-30T14:23:22.661Z,20.11
2023-01-30T14:25:50.838Z,20.16
2023-01-30T14:28:18.043Z,20.21
2023-01-30T14:30:45.619Z,20.25
2023-01-30T14:33:15.596Z,20.31
2023-01-30T14:35:44.837Z,20.38
2023-01-30T14:38:14.026Z,20.44
2023-01-30T14:40:42.780Z,20.50
2023-01-30T14:43:12.711Z,20.55
2023-01-30T14:45:42.852Z,20.62
2023-01-30T14:48:13.149Z,20.64
2023-01-30T14:50:40.647Z,20.69
2023-01-30T14:53:15.109Z,20.72
2023-01-30T14:55:42.547Z,20.77
2023-01-30T14:58:15.488Z,20.80
2023-01-30T15:00:42.924Z,20.85
2023-01-30T15:03:17.173Z,20.89
2023-01-30T15:05:47.010Z,20.94
2023-01-30T15:08:17.287Z,20.97
2023-01-30T15:10:47.433Z,21.00
2023-01-30T15:13:17.543Z,21.02
2023-01-30T15:15:52.534Z,21.05
2023-01-30T15:18:21.014Z,21.08
2023-01-30T15:20:59.193Z,21.09
2023-01-30T15:23:28.409Z,21.10
2023-01-30T15:26:04.120Z,21.13
2023-01-30T15:28:38.089Z,21.13
2023-01-30T15:31:07.430Z,21.17
2023-01-30T15:33:34.328Z,21.17
2023-01-30T15:36:18.111Z,21.20
2023-01-30T15:38:45.741Z,21.21
2023-01-30T15:41:12.723Z,21.21
2023-01-30T15:43:42.807Z,21.23
2023-01-30T15:46:14.874Z,21.23
2023-01-30T15:48:46.237Z,21.23
2023-01-30T15:51:16.917Z,21.23
2023-01-30T15:53:46.010Z,21.23
2023-01-30T15:56:18.349Z,21.22
2023-01-30T15:58:45.801Z,21.22
2023-01-30T16:01:17.543Z,21.26
2023-01-30T16:03:44.652Z,21.27
2023-01-30T16:06:14.707Z,21.28
2023-01-30T16:08:42.365Z,21.29
2023-01-30T16:11:10.892Z,21.25
2023-01-30T16:13:40.092Z,21.24
2023-01-30T16:16:13.146Z,21.24
2023-01-30T16:18:41.936Z,21.25
2023-01-30T16:21:11.134Z,21.28
2023-01-30T16:23:42.200Z,21.29
2023-01-30T16:26:14.681Z,21.24
2023-01-30T16:28:42.098Z,21.28
2023-01-30T16:31:10.421Z,21.28
2023-01-30T16:33:39.355Z,21.27
2023-01-30T16:36:26.674Z,21.29
2023-01-30T16:38:54.907Z,21.27
2023-01-30T16:41:25.089Z,21.28
2023-01-30T16:44:08.158Z,21.29
2023-01-30T16:46:39.709Z,21.31
2023-01-30T16:49:07.096Z,21.33
2023-01-30T16:51:34.651Z,21.35
2023-01-30T16:54:04.050Z,21.36
2023-01-30T16:56:33.848Z,21.40
2023-01-30T16:59:02.182Z,21.40
2023-01-30T17:01:32.863Z,21.43
2023-01-30T17:04:02.473Z,21.42
2023-01-30T17:06:31.217Z,21.43
2023-01-30T17:08:59.199Z,21.43
2023-01-30T17:11:29.786Z,21.44
2023-01-30T17:14:00.157Z,21.45
2023-01-30T17:16:28.566Z,21.45
2023-01-30T17:18:58.778Z,21.46
2023-01-30T17:21:28.754Z,21.49
2023-01-30T17:23:58.470Z,21.50
2023-01-30T17:26:25.508Z,21.52
2023-01-30T17:28:54.631Z,21.53
2023-01-30T17:31:23.324Z,21.54
2023-01-30T17:33:50.352Z,21.55
2023-01-30T17:36:23.783Z,21.55
2023-01-30T17:38:51.778Z,21.57
2023-01-30T17:41:21.044Z,21.56
2023-01-30T17:43:49.778Z,21.56
2023-01-30T17:46:18.099Z,21.56
2023-01-30T17:48:45.968Z,21.55
2023-01-30T17:51:14.715Z,21.55
2023-01-30T17:53:43.372Z,21.53
2023-01-30T17:56:13.732Z,21.54
2023-01-30T17:58:40.789Z,21.50
2023-01-30T18:01:07.800Z,21.49
2023-01-30T18:03:36.320Z,21.45
2023-01-30T18:06:03.583Z,21.43
2023-01-30T18:08:30.547Z,21.44
2023-01-30T18:10:57.660Z,21.41
2023-01-30T18:13:25.712Z,21.37
2023-01-30T18:15:55.702Z,21.33
2023-01-30T18:18:22.878Z,21.33
2023-01-30T18:20:50.257Z,21.32
2023-01-30T18:23:18.409Z,21.31
2023-01-30T18:25:46.036Z,21.28
2023-01-30T18:28:14.519Z,21.25
2023-01-30T18:30:41.679Z,21.22
2023-01-30T18:33:08.880Z,21.21
2023-01-30T18:35:39.039Z,21.18
2023-01-30T18:38:06.064Z,21.15
2023-01-30T18:40:33.414Z,21.11
2023-01-30T18:43:00.810Z,21.08
2023-01-30T18:45:27.812Z,21.04
2023-01-30T18:47:54.969Z,21.03
2023-01-30T18:50:22.065Z,20.98
2023-01-30T18:52:50.902Z,20.97
2023-01-30T18:55:18.111Z,20.96
2023-01-30T18:57:45.531Z,20.90
2023-01-30T19:00:12.769Z,20.86
2023-01-30T19:02:40.933Z,20.84
2023-01-30T19:05:08.723Z,20.80
2023-01-30T19:07:36.016Z,20.75
2023-01-30T19:10:03.454Z,20.73
2023-01-30T19:12:34.409Z,20.71
2023-01-30T19:15:02.249Z,20.67
2023-01-30T19:17:29.970Z,20.63
2023-01-30T19:19:58.655Z,20.58
2023-01-30T19:22:26.095Z,20.53
2023-01-30T19:24:53.333Z,20.51
2023-01-30T19:27:21.113Z,20.52
2023-01-30T19:29:50.374Z,20.46
2023-01-30T19:32:17.389Z,20.41
2023-01-30T19:34:45.700Z,20.41
2023-01-30T19:37:13.530Z,20.36
2023-01-30T19:39:41.006Z,20.32
2023-01-30T19:42:07.960Z,20.29
2023-01-30T19:44:35.333Z,20.27
2023-01-30T19:47:02.531Z,20.25
2023-01-30T19:49:29.611Z,20.24
2023-01-30T19:51:57.977Z,20.21
2023-01-30T19:54:24.823Z,20.14
2023-01-30T19:56:52.220Z,20.13
2023-01-30T19:59:19.307Z,20.10
2023-01-30T20:01:46.328Z,20.06
2023-01-30T20:04:13.844Z,20.06
2023-01-30T20:06:44.761Z,20.03
2023-01-30T20:09:11.760Z,19.99
2023-01-30T20:11:40.192Z,19.94
2023-01-30T20:14:07.458Z,19.92
2023-01-30T20:16:36.018Z,19.90
2023-01-30T20:19:05.723Z,19.89
2023-01-30T20:21:34.119Z,19.83
2023-01-30T20:24:02.966Z,19.81
2023-01-30T20:26:35.177Z,19.79
2023-01-30T20:29:03.324Z,19.72
2023-01-30T20:31:30.853Z,19.72
2023-01-30T20:34:01.077Z,19.71
2023-01-30T20:36:28.741Z,19.67
2023-01-30T20:38:57.281Z,19.64
2023-01-30T20:41:26.114Z,19.60
2023-01-30T20:43:57.902Z,19.60
2023-01-30T20:46:27.681Z,19.57
2023-01-30T20:48:56.598Z,19.51
2023-01-30T20:51:26.222Z,19.50
2023-01-30T20:53:54.819Z,19.47
2023-01-30T20:56:23.200Z,19.50
2023-01-30T20:58:51.375Z,19.40
2023-01-30T21:01:20.486Z,19.38
2023-01-30T21:03:49.891Z,19.36
2023-01-30T21:06:41.736Z,19.34
2023-01-30T21:09:08.187Z,19.34
2023-01-30T21:11:35.353Z,19.31
2023-01-30T21:14:02.608Z,19.32
2023-01-30T21:16:32.068Z,19.29
2023-01-30T21:19:02.002Z,19.28
2023-01-30T21:21:33.563Z,19.24
2023-01-30T21:24:02.498Z,19.26
2023-01-30T21:26:31.491Z,19.26
2023-01-30T21:29:00.262Z,19.25
2023-01-30T21:31:29.709Z,19.23
2023-01-30T21:33:58.301Z,19.25
2023-01-30T21:36:26.616Z,19.24
2023-01-30T21:38:56.781Z,19.21
2023-01-30T21:41:30.021Z,19.21
2023-01-30T21:43:57.262Z,19.16
2023-01-30T21:46:24.732Z,19.15
2023-01-30T21:48:51.932Z,19.15
2023-01-30T21:51:18.974Z,19.12
2023-01-30T21:53:45.993Z,19.09
2023-01-30T21:56:13.764Z,19.10
2023-01-30T21:58:40.659Z,19.09
2023-01-30T22:01:09.044Z,19.14
2023-01-30T22:03:36.768Z,19.16
2023-01-30T22:06:04.253Z,19.20
2023-01-30T22:08:32.079Z,19.23
2023-01-30T22:11:04.869Z,19.23
2023-01-30T22:13:33.129Z,19.28
2023-01-30T22:16:03.710Z,19.32
2023-01-30T22:18:33.363Z,19.34
2023-01-30T22:21:02.517Z,19.36
2023-01-30T22:23:31.223Z,19.40
2023-01-30T22:25:58.184Z,19.45
2023-01-30T22:28:26.221Z,19.52
2023-01-30T22:30:54.073Z,19.58
2023-01-30T22:33:22.020Z,19.64
2023-01-30T22:35:51.196Z,19.71
2023-01-30T22:38:20.611Z,19.73
2023-01-30T22:40:47.814Z,19.80
2023-01-30T22:43:15.688Z,19.84
2023-01-30T22:45:42.681Z,19.90
2023-01-30T22:48:12.342Z,19.93
2023-01-30T22:50:39.356Z,19.99
2023-01-30T22:53:06.664Z,20.05
2023-01-30T22:55:37.085Z,20.09
2023-01-30T22:58:04.093Z,20.15
2023-01-30T23:00:31.304Z,20.20
2023-01-30T23:02:58.244Z,20.25
2023-01-30T23:05:26.158Z,20.32
2023-01-30T23:07:52.971Z,20.35
2023-01-30T23:10:20.432Z,20.40
2023-01-30T23:12:50.501Z,20.45
2023-01-30T23:15:17.921Z,20.50
2023-01-30T23:17:48.611Z,20.56
2023-01-30T23:20:15.841Z,20.60
2023-01-30T23:22:42.825Z,20.66
2023-01-30T23:25:12.039Z,20.70
2023-01-30T23:27:39.106Z,20.74
2023-01-30T23:30:06.811Z,20.80
2023-01-30T23:32:35.546Z,20.84
2023-01-30T23:35:03.749Z,20.89
2023-01-30T23:37:35.852Z,20.94
2023-01-30T23:40:02.828Z,20.97
2023-01-30T23:42:29.900Z,21.02
2023-01-30T23:44:56.920Z,21.05
2023-01-30T23:47:23.961Z,21.08
2023-01-30T23:49:51.125Z,21.12
2023-01-30T23:52:18.742Z,21.15
2023-01-30T23:54:45.883Z,21.18
2023-01-30T23:57:13.841Z,21.21
2023-01-30T23:59:41.278Z,21.22
